createdAt,value
2019-03-06T00:54:00.227Z,8.15
2019-03-06T02:07:48.773Z,8.55
2019-03-06T08:05:19.677Z,1.70
2019-03-06T09:53:21.834Z,1.85
2019-03-06T13:07:02.999Z,2.50
2019-03-06T15:19:12.393Z,2.77
2019-03-06T15:22:02.220Z,2.77
2019-03-06T15:24:40.712Z,3.00
2019-03-06T15:27:21.118Z,3.02
2019-03-06T15:54:31.959Z,2.02
2019-03-06T15:57:01.271Z,2.62
2019-03-06T15:59:49.495Z,2.80
2019-03-06T16:02:37.717Z,2.45
2019-03-06T16:30:13.449Z,2.52
2019-03-06T17:19:23.829Z,4.00
2019-03-06T17:25:22.022Z,4.12
2019-03-06T17:34:19.508Z,3.90
2019-03-06T20:30:15.786Z,5.03
2019-03-06T20:33:03.167Z,5.35
2019-03-06T20:35:50.674Z,5.05
2019-03-06T20:38:37.204Z,5.30
2019-03-06T20:41:24.645Z,4.70
2019-03-06T20:44:11.234Z,4.83
2019-03-06T20:46:58.663Z,5.12
2019-03-06T20:49:45.541Z,5.17
2019-03-06T20:52:32.937Z,5.20
2019-03-06T20:55:19.614Z,5.05
2019-03-06T20:58:06.485Z,6.42
2019-03-06T21:00:53.463Z,4.33
2019-03-06T21:03:40.977Z,5.67
2019-03-06T21:06:33.642Z,5.20
2019-03-06T21:09:17.108Z,5.33
2019-03-06T21:12:04.804Z,4.95
2019-03-06T21:14:51.362Z,6.30
2019-03-06T21:17:38.836Z,5.83
2019-03-06T21:20:26.110Z,5.70
2019-03-06T21:23:13.198Z,5.95
2019-03-06T21:26:00.301Z,6.25
2019-03-06T21:28:46.935Z,6.33
2019-03-06T21:34:20.350Z,6.10
2019-03-06T21:37:07.424Z,6.08
2019-03-06T21:39:53.985Z,6.65
2019-03-06T21:42:41.395Z,7.15
2019-03-06T21:45:28.699Z,6.08
2019-03-06T21:48:15.996Z,5.22
2019-03-06T21:51:05.325Z,6.42
2019-03-06T21:59:23.410Z,5.67
2019-03-06T22:02:10.754Z,6.80
2019-03-06T22:04:58.233Z,6.00
2019-03-06T22:10:31.714Z,5.83
2019-03-06T22:13:19.038Z,5.87
2019-03-06T22:16:05.547Z,6.90
2019-03-06T22:18:52.706Z,6.00
2019-03-06T22:21:40.049Z,6.58
2019-03-06T22:24:27.454Z,6.35
2019-03-06T22:30:04.141Z,6.90
2019-03-06T22:47:56.229Z,8.83
